createdAt,value
2019-03-18T00:00:57.428Z,83.44
2019-03-18T00:01:57.415Z,84.48
2019-03-18T00:02:57.414Z,84.48
2019-03-18T00:03:57.395Z,85.11
2019-03-18T00:04:57.402Z,85.56
2019-03-18T00:05:57.377Z,86.46
2019-03-18T00:06:57.364Z,86.57
2019-03-18T00:07:57.355Z,86.25
2019-03-18T00:08:57.342Z,86.19
2019-03-18T00:09:57.332Z,86.50
2019-03-18T00:10:57.370Z,86.19
2019-03-18T00:11:57.315Z,86.71
2019-03-18T00:12:57.301Z,86.71
2019-03-18T00:13:57.289Z,86.71
2019-03-18T00:15:01.604Z,87.27
2019-03-18T00:15:57.273Z,86.50
2019-03-18T00:16:57.305Z,86.65
2019-03-18T00:17:57.252Z,86.50
2019-03-18T00:18:57.238Z,86.08
2019-03-18T00:19:57.231Z,85.14
2019-03-18T00:20:57.216Z,85.04
2019-03-18T00:21:57.209Z,85.04
2019-03-18T00:22:57.259Z,85.67
2019-03-18T00:23:57.189Z,85.46
2019-03-18T00:24:57.178Z,85.04
2019-03-18T00:25:57.167Z,84.69
2019-03-18T00:26:57.155Z,84.31
2019-03-18T00:27:57.144Z,85.46
2019-03-18T00:28:57.157Z,85.25
2019-03-18T00:29:57.124Z,85.67
2019-03-18T00:30:57.111Z,85.67
2019-03-18T00:31:57.099Z,85.88
2019-03-18T00:32:57.091Z,86.29
2019-03-18T00:33:57.080Z,85.46
2019-03-18T00:34:57.083Z,86.19
2019-03-18T00:35:57.063Z,85.04
2019-03-18T00:36:57.051Z,84.94
2019-03-18T00:37:57.041Z,84.83
2019-03-18T00:38:57.030Z,85.04
2019-03-18T00:39:57.023Z,85.25
2019-03-18T00:40:57.057Z,85.04
2019-03-18T00:41:56.996Z,85.67
2019-03-18T00:42:56.987Z,85.88
2019-03-18T00:43:56.978Z,85.50
2019-03-18T00:44:56.987Z,86.33
2019-03-18T00:45:56.959Z,85.81
2019-03-18T00:46:57.010Z,85.08
2019-03-18T00:47:56.935Z,85.50
2019-03-18T00:48:56.926Z,86.65
2019-03-18T00:49:56.917Z,86.75
2019-03-18T00:50:56.905Z,86.54
2019-03-18T00:51:56.892Z,86.02
2019-03-18T00:52:56.939Z,85.81
2019-03-18T00:53:56.876Z,84.31
2019-03-18T00:54:56.863Z,85.04
2019-03-18T00:55:56.851Z,83.90
2019-03-18T00:56:56.845Z,84.00
2019-03-18T00:57:56.827Z,83.58
2019-03-18T00:58:56.873Z,83.90
2019-03-18T00:59:56.810Z,83.65
2019-03-18T01:00:56.799Z,83.65
2019-03-18T01:01:56.790Z,83.44
2019-03-18T01:02:56.776Z,83.48
2019-03-18T01:03:56.766Z,84.11
2019-03-18T01:04:56.774Z,83.48
2019-03-18T01:05:56.748Z,83.58
2019-03-18T01:06:56.735Z,83.80
2019-03-18T01:07:56.725Z,84.73
2019-03-18T01:08:56.718Z,84.69
2019-03-18T01:09:56.706Z,84.42
2019-03-18T01:10:56.755Z,84.00
2019-03-18T01:11:56.685Z,84.73
2019-03-18T01:12:56.679Z,84.83
2019-03-18T01:13:56.719Z,84.63
2019-03-18T01:14:56.650Z,84.42
2019-03-18T01:15:56.642Z,84.31
2019-03-18T01:16:56.699Z,83.44
2019-03-18T01:17:56.643Z,84.00
2019-03-18T01:18:56.616Z,83.44
2019-03-18T01:19:56.600Z,83.58
2019-03-18T01:20:56.662Z,84.42
2019-03-18T01:21:56.578Z,85.39
2019-03-18T01:22:56.670Z,86.02
2019-03-18T01:23:56.660Z,87.48
2019-03-18T01:24:56.547Z,88.20
2019-03-18T01:25:56.537Z,89.87
2019-03-18T01:26:56.527Z,90.39
2019-03-18T01:27:56.520Z,90.22
2019-03-18T01:28:56.553Z,90.19
2019-03-18T01:29:56.496Z,89.87
2019-03-18T01:30:56.485Z,89.76
2019-03-18T01:31:56.475Z,90.39
2019-03-18T01:32:56.463Z,91.02
2019-03-18T01:33:56.453Z,92.27
2019-03-18T01:34:56.795Z,92.47
2019-03-18T01:35:56.438Z,92.83
2019-03-18T01:36:56.422Z,93.10
2019-03-18T01:37:56.412Z,94.66
2019-03-18T01:38:56.403Z,94.35
2019-03-18T01:39:56.389Z,94.35
2019-03-18T01:40:56.431Z,95.18
2019-03-18T01:41:56.367Z,93.93
2019-03-18T01:42:56.361Z,94.35
2019-03-18T01:43:56.349Z,94.56
2019-03-18T01:44:56.339Z,94.56
2019-03-18T01:45:56.326Z,94.24
2019-03-18T01:46:56.367Z,93.52
2019-03-18T01:47:56.307Z,92.37
2019-03-18T01:48:56.297Z,93.10
2019-03-18T01:49:56.285Z,92.99
2019-03-18T01:50:56.275Z,92.99
2019-03-18T01:51:56.274Z,92.89
2019-03-18T01:52:56.307Z,94.04
2019-03-18T01:53:56.243Z,92.89
2019-03-18T01:54:56.233Z,91.78
2019-03-18T01:55:56.224Z,91.64
2019-03-18T01:56:56.215Z,92.27
2019-03-18T01:57:56.201Z,92.37
2019-03-18T01:58:56.240Z,91.75
2019-03-18T01:59:56.185Z,91.64
2019-03-18T02:00:56.170Z,91.78
2019-03-18T02:01:56.160Z,91.12
2019-03-18T02:02:56.152Z,91.37
2019-03-18T02:03:56.142Z,91.96
2019-03-18T02:04:56.231Z,91.47
2019-03-18T02:05:56.119Z,90.33
2019-03-18T02:06:56.107Z,91.68
2019-03-18T02:07:56.100Z,92.27
2019-03-18T02:08:56.091Z,92.99
2019-03-18T02:09:56.078Z,93.93
2019-03-18T02:10:56.087Z,93.04
2019-03-18T02:11:56.059Z,92.31
2019-03-18T02:12:56.049Z,92.21
2019-03-18T02:13:56.036Z,92.41
2019-03-18T02:14:56.028Z,92.83
2019-03-18T02:15:56.018Z,92.31
2019-03-18T02:16:56.052Z,92.83
2019-03-18T02:17:55.995Z,92.31
2019-03-18T02:18:55.986Z,92.31
2019-03-18T02:19:55.975Z,92.93
2019-03-18T02:20:55.966Z,92.00
2019-03-18T02:21:55.956Z,91.12
2019-03-18T02:22:55.994Z,90.81
2019-03-18T02:23:55.933Z,91.78
2019-03-18T02:24:55.926Z,91.68
2019-03-18T02:25:55.917Z,90.70
2019-03-18T02:26:55.905Z,91.22
2019-03-18T02:27:55.891Z,90.39
2019-03-18T02:28:55.927Z,90.81
2019-03-18T02:29:55.873Z,90.70
2019-03-18T02:30:55.863Z,90.81
2019-03-18T02:31:55.850Z,91.22
2019-03-18T02:32:55.845Z,91.33
2019-03-18T02:33:55.831Z,91.43
2019-03-18T02:34:55.878Z,91.75
2019-03-18T02:35:55.809Z,91.85
2019-03-18T02:36:55.801Z,92.16
2019-03-18T02:37:55.789Z,92.37
2019-03-18T02:38:55.779Z,92.47
2019-03-18T02:39:55.767Z,92.16
2019-03-18T02:40:55.776Z,92.47
2019-03-18T02:41:55.746Z,92.89
2019-03-18T02:42:55.736Z,92.37
2019-03-18T02:43:55.730Z,92.89
2019-03-18T02:44:55.717Z,92.37
2019-03-18T02:46:09.351Z,92.68
2019-03-18T02:46:56.706Z,92.22
2019-03-18T02:47:55.685Z,91.50
2019-03-18T02:48:55.671Z,92.22
2019-03-18T02:49:55.664Z,91.91
2019-03-18T02:50:55.653Z,92.39
2019-03-18T02:51:55.646Z,92.54
2019-03-18T02:52:55.700Z,92.91
2019-03-18T02:53:55.627Z,91.71
2019-03-18T02:54:55.623Z,91.77
2019-03-18T02:55:55.604Z,91.35
2019-03-18T02:56:55.590Z,90.93
2019-03-18T02:57:55.578Z,91.56
2019-03-18T02:58:55.627Z,91.77
2019-03-18T02:59:55.561Z,91.77
2019-03-18T03:00:55.547Z,91.31
2019-03-18T03:01:55.537Z,89.95
2019-03-18T03:02:55.527Z,89.29
2019-03-18T03:03:55.517Z,88.77
2019-03-18T03:04:55.525Z,89.04
2019-03-18T03:05:55.495Z,87.79
2019-03-18T03:06:55.485Z,87.17
2019-03-18T03:07:55.473Z,86.93
2019-03-18T03:08:55.463Z,86.93
2019-03-18T03:09:55.457Z,87.96
2019-03-18T03:10:55.457Z,86.16
2019-03-18T03:11:55.431Z,84.19
2019-03-18T03:12:55.421Z,85.33
2019-03-18T03:13:55.419Z,86.36
2019-03-18T03:14:55.400Z,86.36
2019-03-18T03:15:55.392Z,86.26
2019-03-18T03:16:55.484Z,84.19
2019-03-18T03:17:55.437Z,83.36
2019-03-18T03:18:55.361Z,83.73
2019-03-18T03:19:55.348Z,83.04
2019-03-18T03:20:55.337Z,83.22
2019-03-18T03:21:55.324Z,82.59
2019-03-18T03:22:55.368Z,82.39
2019-03-18T03:23:55.308Z,82.28
2019-03-18T03:24:55.293Z,82.59
2019-03-18T03:25:55.287Z,82.39
2019-03-18T03:26:55.277Z,82.24
2019-03-18T03:27:55.264Z,82.28
2019-03-18T03:28:55.354Z,82.24
2019-03-18T03:29:55.239Z,83.07
2019-03-18T03:30:55.237Z,83.07
2019-03-18T03:31:55.219Z,82.86
2019-03-18T03:32:55.212Z,82.24
2019-03-18T03:33:55.200Z,82.24
2019-03-18T03:34:55.292Z,82.45
2019-03-18T03:35:55.178Z,81.41
2019-03-18T03:36:55.167Z,82.45
2019-03-18T03:37:55.354Z,82.55
2019-03-18T03:38:55.148Z,83.48
2019-03-18T03:39:55.135Z,84.52
2019-03-18T03:40:55.231Z,85.87
2019-03-18T03:41:55.118Z,84.42
2019-03-18T03:42:55.106Z,85.91
2019-03-18T03:43:55.108Z,86.85
2019-03-18T03:44:55.083Z,87.78
2019-03-18T03:45:55.072Z,88.96
2019-03-18T03:46:55.097Z,88.54
2019-03-18T03:47:55.054Z,89.83
2019-03-18T03:48:55.042Z,90.20
2019-03-18T03:49:55.032Z,90.93
2019-03-18T03:50:55.024Z,91.39
2019-03-18T03:51:55.014Z,92.32
2019-03-18T03:52:55.049Z,91.28
2019-03-18T03:53:54.992Z,92.05
2019-03-18T03:54:54.988Z,92.16
2019-03-18T03:55:54.973Z,91.53
2019-03-18T03:56:54.957Z,91.43
2019-03-18T03:57:54.949Z,91.95
2019-03-18T03:58:55.036Z,92.47
2019-03-18T03:59:54.927Z,92.16
2019-03-18T04:00:54.917Z,92.47
2019-03-18T04:01:54.907Z,93.66
2019-03-18T04:02:54.906Z,93.45
2019-03-18T04:03:54.900Z,93.24
2019-03-18T04:04:54.940Z,93.03
2019-03-18T04:05:54.870Z,92.55
2019-03-18T04:06:54.863Z,93.07
2019-03-18T04:07:54.843Z,94.16
2019-03-18T04:08:54.836Z,94.06
2019-03-18T04:09:54.827Z,94.16
2019-03-18T04:10:54.838Z,95.14
2019-03-18T04:11:54.806Z,95.87
2019-03-18T04:12:54.858Z,95.60
2019-03-18T04:13:54.792Z,95.81
2019-03-18T04:14:54.767Z,95.60
2019-03-18T04:15:54.759Z,96.12
2019-03-18T04:17:01.626Z,96.43
2019-03-18T04:17:55.738Z,96.95
2019-03-18T04:18:54.730Z,97.37
2019-03-18T04:19:54.716Z,96.85
2019-03-18T04:20:54.716Z,97.99
2019-03-18T04:21:54.699Z,97.99
2019-03-18T04:22:54.749Z,97.47
2019-03-18T04:23:54.676Z,98.41
2019-03-18T04:24:54.666Z,98.10
2019-03-18T04:25:54.661Z,98.10
2019-03-18T04:26:54.648Z,97.99
2019-03-18T04:27:54.639Z,98.10
2019-03-18T04:28:54.687Z,97.99
2019-03-18T04:29:54.611Z,98.26
2019-03-18T04:30:54.609Z,98.20
2019-03-18T04:31:54.591Z,98.05
2019-03-18T04:32:54.583Z,98.47
2019-03-18T04:33:54.570Z,97.95
2019-03-18T04:34:54.660Z,98.16
2019-03-18T04:35:54.551Z,97.95
2019-03-18T04:36:54.544Z,98.05
2019-03-18T04:37:54.533Z,97.33
2019-03-18T04:38:54.519Z,97.07
2019-03-18T04:39:54.505Z,97.28
2019-03-18T04:40:54.509Z,96.76
2019-03-18T04:41:54.486Z,96.34
2019-03-18T04:42:54.477Z,96.66
2019-03-18T04:43:54.464Z,97.28
2019-03-18T04:44:54.454Z,97.17
2019-03-18T04:45:54.446Z,98.01
2019-03-18T04:46:54.499Z,98.05
2019-03-18T04:47:54.422Z,97.91
2019-03-18T04:48:54.414Z,97.95
2019-03-18T04:49:54.413Z,97.85
2019-03-18T04:50:54.393Z,97.22
2019-03-18T04:51:54.381Z,97.89
2019-03-18T04:52:54.423Z,97.16
2019-03-18T04:53:54.358Z,97.43
2019-03-18T04:54:54.356Z,96.49
2019-03-18T04:55:54.340Z,94.99
2019-03-18T04:56:54.328Z,95.20
2019-03-18T04:57:54.317Z,94.99
2019-03-18T04:58:54.323Z,95.40
2019-03-18T04:59:54.298Z,94.89
2019-03-18T05:00:54.288Z,95.51
2019-03-18T05:01:54.275Z,95.30
2019-03-18T05:02:54.266Z,95.03
2019-03-18T05:03:54.256Z,95.56
2019-03-18T05:04:54.297Z,96.08
2019-03-18T05:05:54.231Z,95.76
2019-03-18T05:06:54.224Z,96.49
2019-03-18T05:07:54.214Z,96.28
2019-03-18T05:08:54.229Z,96.12
2019-03-18T05:09:54.191Z,96.59
2019-03-18T05:10:54.281Z,96.18
2019-03-18T05:11:54.201Z,95.45
2019-03-18T05:12:54.160Z,94.72
2019-03-18T05:13:54.233Z,94.31
2019-03-18T05:14:54.142Z,94.41
2019-03-18T05:15:54.128Z,94.57
2019-03-18T05:16:54.163Z,94.51
2019-03-18T05:17:54.202Z,95.03
2019-03-18T05:18:54.099Z,96.59
2019-03-18T05:19:54.090Z,96.28
2019-03-18T05:20:54.077Z,96.85
2019-03-18T05:21:54.067Z,96.64
2019-03-18T05:22:54.080Z,95.91
2019-03-18T05:23:54.045Z,95.45
2019-03-18T05:24:54.037Z,95.87
2019-03-18T05:25:54.027Z,95.66
2019-03-18T05:26:54.013Z,94.26
2019-03-18T05:27:54.004Z,94.37
2019-03-18T05:28:54.055Z,93.49
2019-03-18T05:29:53.978Z,94.37
2019-03-18T05:30:53.975Z,93.85
2019-03-18T05:31:53.965Z,94.37
2019-03-18T05:32:53.953Z,93.29
2019-03-18T05:33:53.942Z,93.01
2019-03-18T05:34:53.993Z,92.97
2019-03-18T05:35:53.922Z,93.39
2019-03-18T05:36:53.911Z,94.12
2019-03-18T05:37:53.899Z,94.12
2019-03-18T05:38:53.898Z,93.70
2019-03-18T05:39:53.882Z,93.91
2019-03-18T05:40:53.918Z,93.80
2019-03-18T05:41:53.857Z,93.39
2019-03-18T05:42:53.847Z,94.32
2019-03-18T05:43:53.839Z,94.01
2019-03-18T05:44:53.826Z,94.12
2019-03-18T05:45:53.865Z,93.91
2019-03-18T05:46:53.858Z,94.12
2019-03-18T05:47:53.796Z,94.43
2019-03-18T05:48:53.784Z,94.53
2019-03-18T05:49:54.118Z,94.74
2019-03-18T05:50:53.763Z,94.74
2019-03-18T05:51:53.753Z,95.36
2019-03-18T05:52:53.790Z,94.95
2019-03-18T05:53:53.752Z,94.43
2019-03-18T05:54:53.720Z,94.22
2019-03-18T05:55:53.710Z,94.43
2019-03-18T05:56:53.701Z,94.22
2019-03-18T05:57:53.688Z,94.18
2019-03-18T05:58:53.732Z,94.74
2019-03-18T05:59:53.671Z,94.43
2019-03-18T06:00:53.656Z,94.01
2019-03-18T06:01:53.647Z,93.29
2019-03-18T06:02:53.640Z,94.18
2019-03-18T06:03:53.627Z,94.28
2019-03-18T06:04:53.669Z,94.18
2019-03-18T06:05:53.605Z,93.76
2019-03-18T06:06:53.596Z,93.80
2019-03-18T06:07:53.589Z,94.49
2019-03-18T06:08:53.576Z,94.53
2019-03-18T06:09:53.570Z,94.80
2019-03-18T06:10:53.616Z,94.49
2019-03-18T06:11:53.546Z,93.76
2019-03-18T06:12:53.533Z,93.87
2019-03-18T06:13:56.376Z,93.03
2019-03-18T06:14:53.511Z,93.03
2019-03-18T06:15:53.502Z,92.93
2019-03-18T06:16:53.595Z,94.18
2019-03-18T06:17:53.476Z,94.13
2019-03-18T06:18:53.471Z,93.97
2019-03-18T06:19:53.460Z,94.03
2019-03-18T06:20:53.450Z,93.97
2019-03-18T06:21:53.523Z,94.13
2019-03-18T06:22:53.444Z,94.18
2019-03-18T06:23:53.418Z,92.88
2019-03-18T06:24:53.405Z,92.61
2019-03-18T06:25:53.396Z,92.88
2019-03-18T06:26:53.389Z,94.13
2019-03-18T06:27:53.376Z,93.10
2019-03-18T06:29:00.457Z,92.99
2019-03-18T06:29:53.354Z,93.93
2019-03-18T06:30:53.403Z,92.99
2019-03-18T06:31:53.339Z,92.99
2019-03-18T06:32:53.320Z,93.82
2019-03-18T06:33:53.317Z,92.99
2019-03-18T06:34:53.367Z,91.43
2019-03-18T06:35:53.291Z,90.25
2019-03-18T06:36:53.291Z,91.49
2019-03-18T06:37:53.286Z,92.22
2019-03-18T06:38:53.259Z,91.91
2019-03-18T06:39:53.253Z,91.60
2019-03-18T06:40:53.282Z,90.87
2019-03-18T06:41:53.231Z,90.25
2019-03-18T06:42:53.225Z,91.60
2019-03-18T06:43:53.212Z,91.49
2019-03-18T06:44:53.202Z,89.11
2019-03-18T06:45:53.189Z,89.00
2019-03-18T06:46:53.247Z,88.54
2019-03-18T06:48:04.207Z,88.65
2019-03-18T06:48:54.159Z,86.99
2019-03-18T06:49:53.146Z,87.71
2019-03-18T06:50:53.143Z,85.53
2019-03-18T06:51:53.127Z,86.36
2019-03-18T06:52:53.167Z,86.74
2019-03-18T06:53:53.108Z,85.60
2019-03-18T06:54:53.096Z,86.33
2019-03-18T06:55:53.086Z,86.22
2019-03-18T06:56:53.079Z,85.77
2019-03-18T06:57:53.069Z,85.77
2019-03-18T06:58:53.118Z,88.15
2019-03-18T06:59:53.051Z,86.68
2019-03-18T07:00:53.035Z,81.98
2019-03-18T07:01:53.019Z,80.46
2019-03-18T07:02:53.009Z,79.30
2019-03-18T07:03:53.002Z,79.13
2019-03-18T07:04:53.012Z,82.57
2019-03-18T07:05:52.980Z,81.78
2019-03-18T07:06:52.970Z,80.64
2019-03-18T07:07:52.961Z,80.33
2019-03-18T07:08:52.947Z,81.33
2019-03-18T07:09:52.940Z,78.26
2019-03-18T07:10:53.453Z,79.40
2019-03-18T07:11:52.918Z,79.81
2019-03-18T07:12:52.915Z,83.75
2019-03-18T07:13:52.900Z,80.78
2019-03-18T07:14:52.884Z,80.51
2019-03-18T07:15:52.875Z,81.02
2019-03-18T07:16:52.915Z,80.61
2019-03-18T07:17:52.858Z,82.06
2019-03-18T07:18:52.842Z,80.26
2019-03-18T07:19:52.829Z,78.53
2019-03-18T07:20:52.831Z,79.19
2019-03-18T07:21:52.810Z,80.54
2019-03-18T07:22:52.848Z,79.74
2019-03-18T07:23:52.791Z,79.74
2019-03-18T07:24:52.781Z,79.77
2019-03-18T07:25:52.768Z,79.05
2019-03-18T07:26:52.758Z,79.36
2019-03-18T07:27:52.748Z,76.84
2019-03-18T07:28:52.756Z,79.94
2019-03-18T07:29:52.729Z,68.03
2019-03-18T07:30:52.716Z,64.00
2019-03-18T07:31:52.707Z,66.30
2019-03-18T07:32:52.693Z,71.20
2019-03-18T07:33:52.687Z,67.00
2019-03-18T07:34:52.744Z,64.35
2019-03-18T07:35:52.667Z,64.94
2019-03-18T07:36:52.652Z,61.04
2019-03-18T07:37:52.643Z,61.13
2019-03-18T07:38:52.633Z,64.10
2019-03-18T07:39:52.620Z,66.33
2019-03-18T07:40:52.662Z,65.31
2019-03-18T07:41:52.601Z,61.74
2019-03-18T07:42:52.588Z,68.02
2019-03-18T07:43:52.581Z,69.56
2019-03-18T07:44:52.566Z,68.39
2019-03-18T07:45:52.559Z,70.34
2019-03-18T07:46:52.595Z,75.15
2019-03-18T07:47:52.537Z,73.85
2019-03-18T07:48:52.527Z,73.71
2019-03-18T07:49:52.514Z,73.78
2019-03-18T07:50:52.508Z,63.89
2019-03-18T07:51:52.496Z,66.39
2019-03-18T07:52:52.500Z,63.73
2019-03-18T07:53:52.474Z,59.42
2019-03-18T07:54:52.460Z,58.15
2019-03-18T07:55:52.447Z,61.18
2019-03-18T07:56:52.441Z,54.28
2019-03-18T07:57:52.431Z,54.51
2019-03-18T07:58:52.442Z,54.67
2019-03-18T07:59:52.405Z,57.14
2019-03-18T08:00:52.528Z,53.92
2019-03-18T08:01:52.386Z,51.35
2019-03-18T08:02:52.375Z,52.76
2019-03-18T08:03:52.364Z,51.07
2019-03-18T08:04:52.370Z,49.62
2019-03-18T08:05:52.347Z,53.36
2019-03-18T08:06:52.333Z,53.24
2019-03-18T08:07:52.320Z,52.91
2019-03-18T08:08:53.472Z,54.24
2019-03-18T08:09:52.304Z,52.72
2019-03-18T08:10:52.393Z,54.49
2019-03-18T08:11:52.281Z,57.00
2019-03-18T08:12:52.269Z,57.53
2019-03-18T08:13:52.257Z,56.51
2019-03-18T08:14:52.248Z,58.53
2019-03-18T08:15:52.234Z,54.69
2019-03-18T08:16:52.276Z,56.70
2019-03-18T08:17:52.212Z,57.67
2019-03-18T08:18:52.202Z,58.06
2019-03-18T08:19:52.192Z,61.05
2019-03-18T08:20:52.183Z,58.80
2019-03-18T08:21:52.173Z,54.00
2019-03-18T08:22:52.224Z,53.06
2019-03-18T08:23:52.152Z,51.89
2019-03-18T08:24:52.139Z,48.48
2019-03-18T08:25:52.129Z,49.09
2019-03-18T08:26:52.118Z,52.75
2019-03-18T08:27:52.107Z,52.42
2019-03-18T08:28:52.148Z,48.41
2019-03-18T08:29:52.089Z,52.12
2019-03-18T08:30:52.072Z,48.83
2019-03-18T08:31:52.065Z,50.89
2019-03-18T08:32:52.049Z,50.19
2019-03-18T08:33:52.045Z,51.82
2019-03-18T08:34:52.049Z,45.76
2019-03-18T08:35:52.017Z,47.51
2019-03-18T08:36:52.014Z,44.70
2019-03-18T08:37:54.786Z,44.20
2019-03-18T08:38:51.988Z,43.16
2019-03-18T08:39:51.972Z,43.47
2019-03-18T08:40:52.023Z,45.87
2019-03-18T08:41:51.955Z,48.28
2019-03-18T08:42:51.950Z,47.41
2019-03-18T08:43:51.930Z,47.11
2019-03-18T08:44:51.921Z,43.69
2019-03-18T08:45:51.911Z,42.39
2019-03-18T08:46:51.921Z,41.58
2019-03-18T08:47:51.892Z,45.21
2019-03-18T08:48:56.059Z,43.61
2019-03-18T08:49:51.873Z,45.48
2019-03-18T08:50:51.854Z,40.99
2019-03-18T08:51:51.845Z,41.30
2019-03-18T08:52:51.883Z,40.16
2019-03-18T08:53:51.833Z,43.63
2019-03-18T08:54:51.809Z,44.79
2019-03-18T08:55:51.806Z,44.51
2019-03-18T08:56:51.793Z,45.34
2019-03-18T08:57:51.786Z,45.75
2019-03-18T08:58:51.798Z,50.33
2019-03-18T08:59:51.772Z,46.03
2019-03-18T09:00:51.751Z,49.96
2019-03-18T09:01:51.737Z,51.26
2019-03-18T09:02:51.730Z,48.94
2019-03-18T09:03:51.720Z,49.97
2019-03-18T09:04:51.730Z,54.90
2019-03-18T09:05:51.699Z,51.31
2019-03-18T09:06:51.685Z,55.38
2019-03-18T09:07:51.680Z,53.51
2019-03-18T09:08:51.667Z,48.67
2019-03-18T09:09:51.655Z,48.90
2019-03-18T09:10:51.694Z,53.08
2019-03-18T09:11:51.630Z,48.24
2019-03-18T09:12:51.620Z,48.44
2019-03-18T09:13:51.608Z,51.75
2019-03-18T09:14:51.598Z,50.90
2019-03-18T09:15:51.591Z,48.55
2019-03-18T09:16:51.628Z,49.39
2019-03-18T09:17:51.569Z,48.80
2019-03-18T09:18:51.558Z,53.00
2019-03-18T09:19:51.543Z,47.59
2019-03-18T09:20:51.535Z,50.02
2019-03-18T09:21:51.523Z,48.90
2019-03-18T09:22:51.563Z,49.69
2019-03-18T09:23:51.511Z,50.07
2019-03-18T09:24:51.494Z,53.05
2019-03-18T09:25:51.485Z,52.23
2019-03-18T09:27:01.967Z,52.54
2019-03-18T09:27:52.507Z,51.72
2019-03-18T09:28:51.452Z,50.28
2019-03-18T09:29:51.436Z,50.18
2019-03-18T09:30:51.426Z,52.15
2019-03-18T09:31:51.420Z,51.23
2019-03-18T09:32:51.401Z,54.92
2019-03-18T09:33:51.445Z,55.57
2019-03-18T09:34:51.385Z,49.63
2019-03-18T09:35:51.372Z,50.06
2019-03-18T09:36:51.362Z,50.37
2019-03-18T09:37:51.351Z,52.22
2019-03-18T09:38:51.342Z,51.32
2019-03-18T09:39:51.382Z,52.06
2019-03-18T09:40:51.322Z,52.04
2019-03-18T09:41:51.314Z,52.53
2019-03-18T09:42:51.299Z,53.81
2019-03-18T09:43:51.288Z,54.00
2019-03-18T09:44:51.277Z,56.10
2019-03-18T09:45:51.323Z,50.46
2019-03-18T09:46:51.252Z,54.33
2019-03-18T09:47:51.244Z,48.61
2019-03-18T09:48:51.238Z,54.21
2019-03-18T09:49:51.222Z,51.93
2019-03-18T09:50:51.209Z,46.34
2019-03-18T09:51:51.216Z,48.51
2019-03-18T09:52:51.190Z,50.54
2019-03-18T09:53:51.177Z,52.36
2019-03-18T09:54:51.171Z,47.44
2019-03-18T09:55:51.161Z,48.63
2019-03-18T09:56:51.148Z,47.22
2019-03-18T09:57:51.162Z,46.27
2019-03-18T09:58:51.125Z,45.70
2019-03-18T09:59:51.120Z,47.23
2019-03-18T10:00:51.105Z,49.76
2019-03-18T10:01:51.096Z,43.65
2019-03-18T10:02:51.102Z,42.96
2019-03-18T10:03:51.091Z,45.90
2019-03-18T10:04:51.061Z,43.22
2019-03-18T10:05:51.048Z,44.14
2019-03-18T10:06:51.044Z,45.10
2019-03-18T10:07:51.029Z,43.06
2019-03-18T10:08:51.017Z,40.16
2019-03-18T10:09:51.058Z,39.83
2019-03-18T10:10:50.994Z,40.37
2019-03-18T10:11:50.989Z,43.02
2019-03-18T10:12:50.975Z,40.08
2019-03-18T10:13:50.965Z,38.74
2019-03-18T10:14:50.952Z,36.61
2019-03-18T10:15:50.962Z,35.33
2019-03-18T10:16:50.934Z,39.02
2019-03-18T10:17:50.929Z,39.78
2019-03-18T10:18:50.923Z,42.47
2019-03-18T10:19:53.451Z,43.69
2019-03-18T10:20:50.887Z,43.61
2019-03-18T10:21:50.891Z,42.29
2019-03-18T10:22:50.868Z,43.20
2019-03-18T10:23:50.857Z,41.10
2019-03-18T10:24:50.857Z,37.48
2019-03-18T10:25:50.835Z,37.87
2019-03-18T10:26:50.826Z,40.36
2019-03-18T10:27:50.861Z,37.74
2019-03-18T10:28:50.800Z,37.19
2019-03-18T10:29:50.790Z,42.12
2019-03-18T10:30:50.782Z,40.80
2019-03-18T10:31:50.768Z,44.04
2019-03-18T10:32:50.758Z,43.84
2019-03-18T10:33:50.783Z,42.61
2019-03-18T10:34:50.735Z,41.35
2019-03-18T10:35:50.725Z,42.38
2019-03-18T10:36:50.712Z,45.57
2019-03-18T10:37:50.700Z,45.82
2019-03-18T10:38:52.832Z,46.37
2019-03-18T10:39:50.742Z,46.89
2019-03-18T10:40:50.672Z,46.19
2019-03-18T10:41:50.659Z,45.33
2019-03-18T10:42:50.651Z,46.27
2019-03-18T10:43:50.650Z,46.11
2019-03-18T10:44:50.627Z,43.14
2019-03-18T10:45:50.680Z,43.82
2019-03-18T10:46:50.614Z,45.92
2019-03-18T10:47:50.594Z,46.21
2019-03-18T10:48:50.585Z,44.20
2019-03-18T10:49:50.575Z,48.83
2019-03-18T10:50:50.565Z,46.17
2019-03-18T10:51:50.571Z,45.98
2019-03-18T10:52:50.542Z,46.21
2019-03-18T10:53:50.535Z,47.69
2019-03-18T10:54:50.540Z,49.77
2019-03-18T10:55:50.519Z,50.97
2019-03-18T10:56:50.513Z,48.13
2019-03-18T10:57:50.546Z,48.64
2019-03-18T10:58:50.485Z,51.51
2019-03-18T10:59:50.468Z,51.31
2019-03-18T11:00:50.463Z,49.95
2019-03-18T11:01:50.440Z,49.72
2019-03-18T11:02:50.436Z,49.18
2019-03-18T11:03:50.491Z,47.96
2019-03-18T11:04:50.414Z,47.30
2019-03-18T11:05:50.433Z,47.05
2019-03-18T11:06:50.402Z,45.39
2019-03-18T11:07:51.775Z,44.47
2019-03-18T11:08:50.374Z,44.78
2019-03-18T11:09:50.459Z,44.96
2019-03-18T11:10:50.356Z,45.51
2019-03-18T11:11:50.340Z,47.45
2019-03-18T11:12:50.340Z,46.25
2019-03-18T11:13:50.318Z,47.13
2019-03-18T11:14:50.305Z,49.29
2019-03-18T11:15:50.347Z,48.75
2019-03-18T11:16:52.453Z,48.01
2019-03-18T11:17:50.283Z,46.86
2019-03-18T11:18:50.449Z,46.25
2019-03-18T11:19:58.408Z,47.97
2019-03-18T11:20:51.290Z,45.92
2019-03-18T11:21:50.229Z,44.12
2019-03-18T11:22:50.223Z,45.88
2019-03-18T11:23:50.209Z,46.31
2019-03-18T11:24:50.196Z,46.23
2019-03-18T11:25:50.183Z,47.17
2019-03-18T11:26:50.221Z,47.30
2019-03-18T11:27:50.163Z,48.73
2019-03-18T11:28:50.157Z,47.30
2019-03-18T11:29:50.141Z,47.60
2019-03-18T11:30:50.135Z,47.52
2019-03-18T11:31:50.123Z,48.24
2019-03-18T11:32:50.152Z,47.30
2019-03-18T11:33:50.099Z,46.35
2019-03-18T11:34:50.090Z,47.33
2019-03-18T11:35:50.098Z,44.45
2019-03-18T11:36:50.071Z,45.98
2019-03-18T11:37:50.062Z,47.25
2019-03-18T11:38:50.147Z,47.30
2019-03-18T11:39:50.042Z,47.26
2019-03-18T11:40:50.025Z,47.24
2019-03-18T11:41:50.018Z,49.90
2019-03-18T11:42:50.014Z,47.52
2019-03-18T11:43:49.997Z,47.09
2019-03-18T11:44:50.041Z,47.73
2019-03-18T11:45:49.973Z,47.09
2019-03-18T11:46:49.962Z,48.63
2019-03-18T11:47:49.956Z,49.01
2019-03-18T11:48:49.941Z,47.44
2019-03-18T11:49:49.931Z,46.92
2019-03-18T11:50:50.024Z,46.00
2019-03-18T11:51:49.906Z,47.53
2019-03-18T11:52:49.893Z,46.92
2019-03-18T11:53:49.883Z,46.21
2019-03-18T11:54:49.873Z,44.78
2019-03-18T11:55:49.864Z,43.88
2019-03-18T11:56:50.077Z,45.63
2019-03-18T11:57:49.850Z,46.04
2019-03-18T11:58:49.835Z,45.72
2019-03-18T11:59:49.820Z,45.63
2019-03-18T12:00:49.810Z,45.49
2019-03-18T12:01:49.801Z,48.48
2019-03-18T12:02:49.893Z,46.86
2019-03-18T12:03:49.781Z,47.81
2019-03-18T12:04:49.768Z,48.52
2019-03-18T12:05:49.761Z,48.71
2019-03-18T12:06:49.743Z,48.30
2019-03-18T12:07:49.734Z,47.68
2019-03-18T12:08:49.774Z,46.53
2019-03-18T12:09:49.733Z,45.84
2019-03-18T12:10:49.698Z,48.11
2019-03-18T12:11:49.708Z,48.63
2019-03-18T12:12:49.682Z,48.75
2019-03-18T12:13:49.669Z,50.37
2019-03-18T12:14:49.767Z,50.47
2019-03-18T12:15:49.935Z,48.73
2019-03-18T12:16:49.634Z,49.96
2019-03-18T12:17:49.732Z,48.71
2019-03-18T12:18:49.617Z,47.76
2019-03-18T12:19:49.608Z,47.86
2019-03-18T12:20:49.646Z,45.20
2019-03-18T12:21:49.588Z,46.07
2019-03-18T12:22:49.586Z,44.24
2019-03-18T12:23:49.562Z,42.49
2019-03-18T12:24:49.548Z,41.41
2019-03-18T12:25:49.541Z,43.77
2019-03-18T12:26:49.545Z,43.49
2019-03-18T12:27:49.523Z,44.41
2019-03-18T12:28:51.530Z,44.32
2019-03-18T12:29:57.031Z,44.96
2019-03-18T12:30:49.488Z,47.41
2019-03-18T12:31:49.474Z,48.60
2019-03-18T12:32:49.521Z,48.63
2019-03-18T12:33:49.455Z,49.85
2019-03-18T12:34:49.448Z,48.65
2019-03-18T12:35:49.432Z,48.47
2019-03-18T12:36:49.423Z,53.23
2019-03-18T12:37:49.410Z,56.95
2019-03-18T12:38:49.416Z,59.23
2019-03-18T12:39:49.387Z,60.36
2019-03-18T12:40:49.378Z,60.29
2019-03-18T12:41:49.369Z,60.26
2019-03-18T12:42:49.355Z,61.29
2019-03-18T12:43:49.346Z,60.91
2019-03-18T12:44:49.452Z,62.55
2019-03-18T12:45:49.324Z,62.45
2019-03-18T12:46:49.314Z,62.65
2019-03-18T12:47:49.305Z,64.01
2019-03-18T12:48:49.292Z,63.91
2019-03-18T12:49:49.282Z,63.22
2019-03-18T12:50:56.447Z,64.36
2019-03-18T12:51:50.259Z,64.76
2019-03-18T12:52:49.250Z,64.94